Nissho Maru — JD2650 — position and weather

sailwx.info

Track history (hours):
 
Tides and Currents Weather Stations Pressure Air Temp Water Temp Dewpoint Dewpoint Depression Visibility Wind Speed Wind Dir Waves Ship Positions

Nissho Maru

Last reported at 2015-Jul-31 03:22 UTC. Time now 2015-Aug-03 23:22 UTC.
Position N 33°38' E 129°49'.

Length 75 m; draft 4 m.

Type: Cargo ship. MMSI: 431000572.

Date/timePositionNaut miles runAvg speedWind from/ knotsBaromVisibWave heightAir tempDewpointWater temp
2015-Jul-31 03:22N 33°38' E 129°49'911.2
2015-Jul-31 02:33N 33°43' E 129°58'1211.4
2015-Jul-31 01:32N 33°49' E 130°10'  
2015-Jul-28 08:14N 34°53' E 139°23'710.7
2015-Jul-28 07:33N 34°58' E 139°30'1211.6
2015-Jul-28 06:33N 35°05' E 139°41'1211.8
2015-Jul-28 05:33N 35°16' E 139°46'10 9.9
2015-Jul-28 04:33N 35°26' E 139°46'1212.4
2015-Jul-28 03:33N 35°33' E 139°59'6 5.8
2015-Jul-28 02:27N 35°36' E 140°06'0 0.0
2015-Jul-28 01:33N 35°36' E 140°06'0 0.0
2015-Jul-28 00:33N 35°36' E 140°06'0 0.0
2015-Jul-27 23:33N 35°36' E 140°06'3 3.2
2015-Jul-27 22:33N 35°34' E 140°03'1010.2
2015-Jul-27 21:33N 35°29' E 139°52'1211.7
2015-Jul-27 20:33N 35°19' E 139°44'1110.8
2015-Jul-27 19:33N 35°08' E 139°45'1412.4
2015-Jul-27 18:24N 34°58' E 139°32'  
2015-Jul-23 14:33N 33°58' E 134°60'1211.8
2015-Jul-23 13:33N 34°09' E 134°59'1211.6
2015-Jul-23 12:33N 34°21' E 135°00'1212.0
2015-Jul-23 11:33N 34°29' E 135°11'1212.1
2015-Jul-23 10:33N 34°40' E 135°18'2 1.9
2015-Jul-23 09:32N 34°42' E 135°19'0 0.0
2015-Jul-23 08:33N 34°42' E 135°19'0 0.1
2015-Jul-23 07:32N 34°42' E 135°19'1 0.9
2015-Jul-23 06:30N 34°42' E 135°18'0 0.0
2015-Jul-23 05:24N 34°42' E 135°18'0 0.0
2015-Jul-23 04:30N 34°42' E 135°18'0 0.0
2015-Jul-23 03:30N 34°42' E 135°18'0 0.0
2015-Jul-23 02:24N 34°42' E 135°18'0 0.0
2015-Jul-23 01:30N 34°42' E 135°18'0 0.0
2015-Jul-23 00:30N 34°42' E 135°18'0 0.0
2015-Jul-22 23:30N 34°42' E 135°18'0 0.0
2015-Jul-22 22:30N 34°42' E 135°18'0 0.0
2015-Jul-22 21:30N 34°42' E 135°18'0 0.0
2015-Jul-22 20:30N 34°42' E 135°18'0 0.0
2015-Jul-22 19:30N 34°42' E 135°18'0 0.0
2015-Jul-22 18:30N 34°42' E 135°18'0 0.0
2015-Jul-22 17:30N 34°42' E 135°18'0 0.0
2015-Jul-22 16:30N 34°42' E 135°18'0 0.0
2015-Jul-22 15:30N 34°42' E 135°18'0 0.0
2015-Jul-22 14:30N 34°42' E 135°18'0 0.0
2015-Jul-22 13:30N 34°42' E 135°18'0 0.0
2015-Jul-22 12:30N 34°42' E 135°18'0 0.0
2015-Jul-22 11:30N 34°42' E 135°18'0 0.0
2015-Jul-22 10:30N 34°42' E 135°18'0 0.0
2015-Jul-22 09:30N 34°42' E 135°18'0 0.0
2015-Jul-22 08:30N 34°42' E 135°18'0 0.0
2015-Jul-22 07:30N 34°42' E 135°18'0 0.0
2015-Jul-22 06:30N 34°42' E 135°18'0 0.0
2015-Jul-22 05:30N 34°42' E 135°18'0 0.0
2015-Jul-22 04:30N 34°42' E 135°18'0 0.0
2015-Jul-22 03:30N 34°42' E 135°18'0 0.0
2015-Jul-22 02:30N 34°42' E 135°18'0 0.0
2015-Jul-22 01:30N 34°42' E 135°18'0 0.0
2015-Jul-22 00:30N 34°42' E 135°18'0 0.0
2015-Jul-21 23:33N 34°42' E 135°18'1 0.7
2015-Jul-21 22:33N 34°42' E 135°18'6 6.4
2015-Jul-21 21:33N 34°35' E 135°17'1111.1
2015-Jul-21 20:33N 34°27' E 135°08'1410.6
2015-Jul-21 19:16N 34°15' E 134°59'811.7
2015-Jul-21 18:33N 34°07' E 134°60'  
Track history (hours):
 
Tides and Currents Weather Stations Pressure Air Temp Water Temp Dewpoint Dewpoint Depression Visibility Wind Speed Wind Dir Waves Ship Positions

Nissho Maru

Last reported at 2015-Jul-31 03:22 UTC. Time now 2015-Aug-03 23:22 UTC.
Position N 33°38' E 129°49'.

Length 75 m; draft 4 m.

Type: Cargo ship. MMSI: 431000572.

Date/timePositionNaut miles runAvg speedWind from/ knotsBaromVisibWave heightAir tempDewpointWater temp
2015-Jul-31 03:22N 33°38' E 129°49'911.2
2015-Jul-31 02:33N 33°43' E 129°58'1211.4
2015-Jul-31 01:32N 33°49' E 130°10'  
2015-Jul-28 08:14N 34°53' E 139°23'710.7
2015-Jul-28 07:33N 34°58' E 139°30'1211.6
2015-Jul-28 06:33N 35°05' E 139°41'1211.8
2015-Jul-28 05:33N 35°16' E 139°46'10 9.9
2015-Jul-28 04:33N 35°26' E 139°46'1212.4
2015-Jul-28 03:33N 35°33' E 139°59'6 5.8
2015-Jul-28 02:27N 35°36' E 140°06'0 0.0
2015-Jul-28 01:33N 35°36' E 140°06'0 0.0
2015-Jul-28 00:33N 35°36' E 140°06'0 0.0
2015-Jul-27 23:33N 35°36' E 140°06'3 3.2
2015-Jul-27 22:33N 35°34' E 140°03'1010.2
2015-Jul-27 21:33N 35°29' E 139°52'1211.7
2015-Jul-27 20:33N 35°19' E 139°44'1110.8
2015-Jul-27 19:33N 35°08' E 139°45'1412.4
2015-Jul-27 18:24N 34°58' E 139°32'  
2015-Jul-23 14:33N 33°58' E 134°60'1211.8
2015-Jul-23 13:33N 34°09' E 134°59'1211.6
2015-Jul-23 12:33N 34°21' E 135°00'1212.0
2015-Jul-23 11:33N 34°29' E 135°11'1212.1
2015-Jul-23 10:33N 34°40' E 135°18'2 1.9
2015-Jul-23 09:32N 34°42' E 135°19'0 0.0
2015-Jul-23 08:33N 34°42' E 135°19'0 0.1
2015-Jul-23 07:32N 34°42' E 135°19'1 0.9
2015-Jul-23 06:30N 34°42' E 135°18'0 0.0
2015-Jul-23 05:24N 34°42' E 135°18'0 0.0
2015-Jul-23 04:30N 34°42' E 135°18'0 0.0
2015-Jul-23 03:30N 34°42' E 135°18'0 0.0
2015-Jul-23 02:24N 34°42' E 135°18'0 0.0
2015-Jul-23 01:30N 34°42' E 135°18'0 0.0
2015-Jul-23 00:30N 34°42' E 135°18'0 0.0
2015-Jul-22 23:30N 34°42' E 135°18'0 0.0
2015-Jul-22 22:30N 34°42' E 135°18'0 0.0
2015-Jul-22 21:30N 34°42' E 135°18'0 0.0
2015-Jul-22 20:30N 34°42' E 135°18'0 0.0
2015-Jul-22 19:30N 34°42' E 135°18'0 0.0
2015-Jul-22 18:30N 34°42' E 135°18'0 0.0
2015-Jul-22 17:30N 34°42' E 135°18'0 0.0
2015-Jul-22 16:30N 34°42' E 135°18'0 0.0
2015-Jul-22 15:30N 34°42' E 135°18'0 0.0
2015-Jul-22 14:30N 34°42' E 135°18'0 0.0
2015-Jul-22 13:30N 34°42' E 135°18'0 0.0
2015-Jul-22 12:30N 34°42' E 135°18'0 0.0
2015-Jul-22 11:30N 34°42' E 135°18'0 0.0
2015-Jul-22 10:30N 34°42' E 135°18'0 0.0
2015-Jul-22 09:30N 34°42' E 135°18'0 0.0
2015-Jul-22 08:30N 34°42' E 135°18'0 0.0
2015-Jul-22 07:30N 34°42' E 135°18'0 0.0
2015-Jul-22 06:30N 34°42' E 135°18'0 0.0
2015-Jul-22 05:30N 34°42' E 135°18'0 0.0
2015-Jul-22 04:30N 34°42' E 135°18'0 0.0
2015-Jul-22 03:30N 34°42' E 135°18'0 0.0
2015-Jul-22 02:30N 34°42' E 135°18'0 0.0
2015-Jul-22 01:30N 34°42' E 135°18'0 0.0
2015-Jul-22 00:30N 34°42' E 135°18'0 0.0
2015-Jul-21 23:33N 34°42' E 135°18'1 0.7
2015-Jul-21 22:33N 34°42' E 135°18'6 6.4
2015-Jul-21 21:33N 34°35' E 135°17'1111.1
2015-Jul-21 20:33N 34°27' E 135°08'1410.6
2015-Jul-21 19:16N 34°15' E 134°59'811.7
2015-Jul-21 18:33N 34°07' E 134°60'  

Dump ship's entire track history